Air Resources Laboratory banner image
Air Resources Laboratory web site National Oceanic and Atmospheric Administration (NOAA)

nc metar


K2DP 222256Z AUTO 22003KT 10SM FEW031 BKN180 25/20 A3006 RMK AO2 SLPNO
 T02500203 $=
KAKH 222254Z AUTO VRB04KT 10SM SCT100 26/18 A3006 RMK AO2 SLP172 T02560178=
KAVL 222254Z 17007KT 10SM CLR 23/17 A3011 RMK AO2 SLP171 T02330172=
KBUY 222254Z AUTO 18007KT 10SM CLR 29/19 A3002 RMK AO2 SLP157 T02890189=
KCLT 222252Z 22009KT 10SM FEW044 SCT085 BKN200 27/19 A3006 RMK AO2 SLP169 TCU
 DSNT E AND SW T02670189=
KECG 222254Z 19004KT 10SM CLR 23/22 A3004 RMK AO2 RAE08 SLP172 P0000 T02280217=
KEQY 222253Z AUTO 22008KT 10SM FEW050 SCT060 26/20 A3005 RMK AO2 SLP174
 T02610200=
KEWN 222254Z 18008KT 10SM CLR 26/19 A3008 RMK AO2 SLP186 T02560194=
KFAY 222253Z 19015G19KT 10SM FEW043 SCT060 SCT075 28/19 A3004 RMK AO2 SLP165
 T02830189=
KFBG 222256Z AUTO 19009KT 10SM FEW060 FEW095 29/18 A3003 RMK AO2 SLP170
 T02930181 $=
KFQD 222245Z AUTO 21007G15KT 10SM -RA SCT038 SCT050 BKN070 24/20 A3008 RMK AO2
 LTG DSNT NW T02400202=
KGEV 222245Z AUTO 24004KT 10SM SCT038 SCT046 BKN075 19/17 A3015 RMK AO2
 T01910165=
KGSB 222256Z AUTO 19008KT 10SM FEW070 28/20 A3003 RMK AO2 SLP171 T02780196 $=
KGSO 222254Z 21011KT 10SM FEW047 SCT150 SCT250 27/17 A3003 RMK AO2 SLP158 CB
 DSNT NE T02720172=
KHKY 222253Z 22011G19KT 10SM FEW047 25/19 A3006 RMK AO2 SLP159 T02500194=
KHRJ 222245Z AUTO 17008KT 10SM SCT060 SCT070 30/12 A3004 RMK AO2 T03000122=
KHSE 222251Z AUTO 23010G16KT 10SM CLR 24/22 A3009 RMK AO2 SLP188 T02440222=
KILM 222253Z 22011KT 10SM CLR 27/19 A3008 RMK AO2 SLP187 T02670194=
KINT 222254Z 23007KT 10SM CLR 28/16 A3004 RMK AO2 SLP161 T02830156=
KIPJ 222255Z AUTO 23010KT 10SM CLR 27/17 A3006 RMK AO2 T02650173=
KJNX 222250Z AUTO 19006KT 10SM CLR 29/17 A3003 RMK AO2=
KJQF 222252Z 21009KT 10SM SCT050 28/17 A3006=
KLBT 222254Z AUTO 19008KT 10SM SCT055 26/18 A3005 RMK AO2 SLP176 T02560183=
KMEB 222252Z AUTO 22015KT 10SM FEW041 FEW048 27/19 A3005 RMK AO2 SLP173
 T02720194=
KOAJ 222256Z AUTO 17007KT 10SM BKN110 26/22 A3007 RMK AO2 SLP187 T02610222 TSNO=
KPGV 222245Z AUTO 00000KT 10SM CLR 26/21 A3006 RMK AO2=
KPOB 222256Z AUTO 22009G17KT 10SM FEW060 SCT075 BKN095 30/17 A3003 RMK AO2
 SLP170 T02960174 $=
KRDU 222251Z 24004KT 10SM FEW048 BKN150 BKN250 27/20 A3003 RMK AO2 SLP163
 T02670200=
KRWI 222253Z AUTO VRB04KT 10SM FEW045 27/22 A3004 RMK AO2 SLP170 T02670217=
KSOP 222256Z AUTO 18009KT 10SM FEW055 29/19 A3004 RMK AO2 SLP183 T02890189=